sensor_id;sensor_type;location;lat;lon;timestamp;P1;durP1;ratioP1;P2;durP2;ratioP2
18013;SDS011;9132;47.946;10.394;2023-04-24T00:00:11;1.73;;;0.70;;
18013;SDS011;9132;47.946;10.394;2023-04-24T00:02:39;1.93;;;0.63;;
18013;SDS011;9132;47.946;10.394;2023-04-24T00:05:06;2.47;;;0.70;;
18013;SDS011;9132;47.946;10.394;2023-04-24T00:07:33;0.80;;;0.80;;
18013;SDS011;9132;47.946;10.394;2023-04-24T00:09:59;0.60;;;0.60;;
18013;SDS011;9132;47.946;10.394;2023-04-24T00:12:27;0.60;;;0.60;;
18013;SDS011;9132;47.946;10.394;2023-04-24T00:14:53;1.13;;;0.50;;
18013;SDS011;9132;47.946;10.394;2023-04-24T00:17:19;2.23;;;0.80;;
18013;SDS011;9132;47.946;10.394;2023-04-24T00:19:46;0.73;;;0.60;;
18013;SDS011;9132;47.946;10.394;2023-04-24T00:22:12;0.93;;;0.60;;
18013;SDS011;9132;47.946;10.394;2023-04-24T00:24:39;1.33;;;0.50;;
18013;SDS011;9132;47.946;10.394;2023-04-24T00:27:05;1.07;;;0.70;;
18013;SDS011;9132;47.946;10.394;2023-04-24T00:29:33;1.40;;;0.50;;
18013;SDS011;9132;47.946;10.394;2023-04-24T00:31:59;0.50;;;0.50;;
18013;SDS011;9132;47.946;10.394;2023-04-24T00:34:26;0.70;;;0.70;;
18013;SDS011;9132;47.946;10.394;2023-04-24T00:36:52;1.07;;;0.60;;
18013;SDS011;9132;47.946;10.394;2023-04-24T00:39:19;1.67;;;0.70;;
18013;SDS011;9132;47.946;10.394;2023-04-24T00:41:46;1.90;;;0.90;;
18013;SDS011;9132;47.946;10.394;2023-04-24T00:44:13;0.83;;;0.60;;
18013;SDS011;9132;47.946;10.394;2023-04-24T00:46:40;3.73;;;0.97;;
18013;SDS011;9132;47.946;10.394;2023-04-24T00:49:07;0.87;;;0.80;;
18013;SDS011;9132;47.946;10.394;2023-04-24T00:51:33;0.90;;;0.80;;
18013;SDS011;9132;47.946;10.394;2023-04-24T00:53:59;1.37;;;0.87;;
18013;SDS011;9132;47.946;10.394;2023-04-24T00:56:26;1.17;;;0.80;;
18013;SDS011;9132;47.946;10.394;2023-04-24T00:58:52;1.40;;;0.70;;
18013;SDS011;9132;47.946;10.394;2023-04-24T01:01:18;1.47;;;0.77;;
18013;SDS011;9132;47.946;10.394;2023-04-24T01:03:47;0.80;;;0.80;;
18013;SDS011;9132;47.946;10.394;2023-04-24T01:06:15;3.60;;;0.67;;
18013;SDS011;9132;47.946;10.394;2023-04-24T01:08:41;0.60;;;0.60;;
18013;SDS011;9132;47.946;10.394;2023-04-24T01:11:07;2.23;;;0.70;;
18013;SDS011;9132;47.946;10.394;2023-04-24T01:13:34;2.93;;;0.70;;
18013;SDS011;9132;47.946;10.394;2023-04-24T01:16:00;0.60;;;0.60;;
18013;SDS011;9132;47.946;10.394;2023-04-24T01:18:27;2.50;;;0.60;;
18013;SDS011;9132;47.946;10.394;2023-04-24T01:20:56;0.60;;;0.60;;
18013;SDS011;9132;47.946;10.394;2023-04-24T01:23:24;0.50;;;0.50;;
18013;SDS011;9132;47.946;10.394;2023-04-24T01:25:51;0.67;;;0.60;;
18013;SDS011;9132;47.946;10.394;2023-04-24T01:28:18;0.87;;;0.60;;
18013;SDS011;9132;47.946;10.394;2023-04-24T01:30:44;0.70;;;0.70;;
18013;SDS011;9132;47.946;10.394;2023-04-24T01:33:11;1.67;;;0.70;;
18013;SDS011;9132;47.946;10.394;2023-04-24T01:35:37;1.43;;;0.80;;
18013;SDS011;9132;47.946;10.394;2023-04-24T01:38:04;1.57;;;0.77;;
18013;SDS011;9132;47.946;10.394;2023-04-24T01:40:32;1.33;;;0.90;;
18013;SDS011;9132;47.946;10.394;2023-04-24T01:42:58;0.70;;;0.70;;
18013;SDS011;9132;47.946;10.394;2023-04-24T01:45:24;1.30;;;0.80;;
18013;SDS011;9132;47.946;10.394;2023-04-24T01:47:51;1.00;;;0.83;;
18013;SDS011;9132;47.946;10.394;2023-04-24T01:50:17;1.00;;;0.80;;
18013;SDS011;9132;47.946;10.394;2023-04-24T01:52:44;0.70;;;0.63;;
18013;SDS011;9132;47.946;10.394;2023-04-24T01:55:10;1.17;;;0.70;;
18013;SDS011;9132;47.946;10.394;2023-04-24T01:57:38;0.70;;;0.67;;
18013;SDS011;9132;47.946;10.394;2023-04-24T02:00:05;0.83;;;0.80;;
18013;SDS011;9132;47.946;10.394;2023-04-24T02:02:32;2.07;;;0.80;;
18013;SDS011;9132;47.946;10.394;2023-04-24T02:04:58;1.30;;;0.83;;
18013;SDS011;9132;47.946;10.394;2023-04-24T02:07:24;0.77;;;0.70;;
18013;SDS011;9132;47.946;10.394;2023-04-24T02:09:51;0.87;;;0.87;;
18013;SDS011;9132;47.946;10.394;2023-04-24T02:12:17;1.17;;;0.80;;
18013;SDS011;9132;47.946;10.394;2023-04-24T02:14:45;0.60;;;0.60;;
18013;SDS011;9132;47.946;10.394;2023-04-24T02:17:11;2.43;;;0.70;;
18013;SDS011;9132;47.946;10.394;2023-04-24T02:19:40;0.87;;;0.60;;
18013;SDS011;9132;47.946;10.394;2023-04-24T02:22:06;0.73;;;0.50;;
18013;SDS011;9132;47.946;10.394;2023-04-24T02:24:33;1.13;;;0.63;;
18013;SDS011;9132;47.946;10.394;2023-04-24T02:26:59;0.80;;;0.70;;
18013;SDS011;9132;47.946;10.394;2023-04-24T02:29:26;0.80;;;0.57;;
18013;SDS011;9132;47.946;10.394;2023-04-24T02:31:54;0.53;;;0.50;;
18013;SDS011;9132;47.946;10.394;2023-04-24T02:34:20;0.60;;;0.60;;
18013;SDS011;9132;47.946;10.394;2023-04-24T02:36:48;1.07;;;0.60;;
18013;SDS011;9132;47.946;10.394;2023-04-24T02:39:14;0.50;;;0.50;;
18013;SDS011;9132;47.946;10.394;2023-04-24T02:41:41;0.80;;;0.60;;
18013;SDS011;9132;47.946;10.394;2023-04-24T02:44:08;0.93;;;0.60;;
18013;SDS011;9132;47.946;10.394;2023-04-24T02:46:34;1.03;;;0.83;;
18013;SDS011;9132;47.946;10.394;2023-04-24T02:49:02;0.60;;;0.60;;
18013;SDS011;9132;47.946;10.394;2023-04-24T02:51:28;0.63;;;0.50;;
18013;SDS011;9132;47.946;10.394;2023-04-24T02:53:54;1.33;;;0.50;;
18013;SDS011;9132;47.946;10.394;2023-04-24T02:56:21;0.70;;;0.67;;
18013;SDS011;9132;47.946;10.394;2023-04-24T02:58:47;1.63;;;0.90;;
18013;SDS011;9132;47.946;10.394;2023-04-24T03:01:13;0.87;;;0.57;;
18013;SDS011;9132;47.946;10.394;2023-04-24T03:03:40;1.73;;;0.63;;
18013;SDS011;9132;47.946;10.394;2023-04-24T03:06:07;1.47;;;0.70;;
18013;SDS011;9132;47.946;10.394;2023-04-24T03:08:34;0.70;;;0.50;;
18013;SDS011;9132;47.946;10.394;2023-04-24T03:11:00;0.60;;;0.60;;
18013;SDS011;9132;47.946;10.394;2023-04-24T03:13:27;1.90;;;0.60;;
18013;SDS011;9132;47.946;10.394;2023-04-24T03:15:53;1.27;;;0.60;;
18013;SDS011;9132;47.946;10.394;2023-04-24T03:18:19;1.57;;;0.70;;
18013;SDS011;9132;47.946;10.394;2023-04-24T03:20:46;0.60;;;0.60;;
18013;SDS011;9132;47.946;10.394;2023-04-24T03:23:13;0.50;;;0.50;;
18013;SDS011;9132;47.946;10.394;2023-04-24T03:25:40;0.70;;;0.70;;
18013;SDS011;9132;47.946;10.394;2023-04-24T03:28:07;0.60;;;0.60;;
18013;SDS011;9132;47.946;10.394;2023-04-24T03:30:34;2.83;;;0.60;;
18013;SDS011;9132;47.946;10.394;2023-04-24T03:33:00;0.90;;;0.70;;
18013;SDS011;9132;47.946;10.394;2023-04-24T03:35:26;0.70;;;0.70;;
18013;SDS011;9132;47.946;10.394;2023-04-24T03:37:52;0.90;;;0.60;;
18013;SDS011;9132;47.946;10.394;2023-04-24T03:40:20;1.47;;;0.50;;
18013;SDS011;9132;47.946;10.394;2023-04-24T03:42:46;0.87;;;0.60;;
18013;SDS011;9132;47.946;10.394;2023-04-24T03:45:13;1.33;;;0.63;;
18013;SDS011;9132;47.946;10.394;2023-04-24T03:47:39;0.60;;;0.40;;
18013;SDS011;9132;47.946;10.394;2023-04-24T03:50:06;2.00;;;0.80;;
18013;SDS011;9132;47.946;10.394;2023-04-24T03:52:32;0.83;;;0.50;;
18013;SDS011;9132;47.946;10.394;2023-04-24T03:54:58;1.03;;;0.70;;
18013;SDS011;9132;47.946;10.394;2023-04-24T03:57:26;1.00;;;0.63;;
18013;SDS011;9132;47.946;10.394;2023-04-24T03:59:52;0.37;;;0.37;;
18013;SDS011;9132;47.946;10.394;2023-04-24T04:02:19;1.00;;;0.50;;
18013;SDS011;9132;47.946;10.394;2023-04-24T04:04:45;0.67;;;0.67;;
18013;SDS011;9132;47.946;10.394;2023-04-24T04:07:12;0.97;;;0.60;;
18013;SDS011;9132;47.946;10.394;2023-04-24T04:09:38;0.50;;;0.50;;
18013;SDS011;9132;47.946;10.394;2023-04-24T04:12:04;2.50;;;0.80;;
18013;SDS011;9132;47.946;10.394;2023-04-24T04:14:32;0.50;;;0.50;;
18013;SDS011;9132;47.946;10.394;2023-04-24T04:16:58;2.30;;;0.80;;
18013;SDS011;9132;47.946;10.394;2023-04-24T04:19:25;1.10;;;0.50;;
18013;SDS011;9132;47.946;10.394;2023-04-24T04:21:51;0.60;;;0.60;;
18013;SDS011;9132;47.946;10.394;2023-04-24T04:24:18;2.50;;;0.57;;
18013;SDS011;9132;47.946;10.394;2023-04-24T04:26:45;0.70;;;0.60;;
18013;SDS011;9132;47.946;10.394;2023-04-24T04:29:12;1.53;;;0.60;;
18013;SDS011;9132;47.946;10.394;2023-04-24T04:31:40;1.67;;;0.60;;
18013;SDS011;9132;47.946;10.394;2023-04-24T04:34:06;0.87;;;0.60;;
18013;SDS011;9132;47.946;10.394;2023-04-24T04:36:34;1.47;;;0.50;;
18013;SDS011;9132;47.946;10.394;2023-04-24T04:39:01;0.50;;;0.50;;
18013;SDS011;9132;47.946;10.394;2023-04-24T04:41:29;0.57;;;0.57;;
18013;SDS011;9132;47.946;10.394;2023-04-24T04:43:55;0.97;;;0.50;;
18013;SDS011;9132;47.946;10.394;2023-04-24T04:46:23;0.40;;;0.33;;
18013;SDS011;9132;47.946;10.394;2023-04-24T04:48:52;1.60;;;0.70;;
18013;SDS011;9132;47.946;10.394;2023-04-24T04:51:18;0.60;;;0.47;;
18013;SDS011;9132;47.946;10.394;2023-04-24T04:53:47;0.30;;;0.30;;
18013;SDS011;9132;47.946;10.394;2023-04-24T04:56:21;0.70;;;0.60;;
18013;SDS011;9132;47.946;10.394;2023-04-24T04:58:47;0.47;;;0.47;;
18013;SDS011;9132;47.946;10.394;2023-04-24T05:01:14;0.63;;;0.40;;
18013;SDS011;9132;47.946;10.394;2023-04-24T05:03:40;2.30;;;0.60;;
18013;SDS011;9132;47.946;10.394;2023-04-24T05:06:08;2.23;;;0.50;;
18013;SDS011;9132;47.946;10.394;2023-04-24T05:08:34;0.90;;;0.63;;
18013;SDS011;9132;47.946;10.394;2023-04-24T05:11:00;1.70;;;0.50;;
18013;SDS011;9132;47.946;10.394;2023-04-24T05:13:27;0.60;;;0.50;;
18013;SDS011;9132;47.946;10.394;2023-04-24T05:15:53;0.93;;;0.83;;
18013;SDS011;9132;47.946;10.394;2023-04-24T05:18:19;1.57;;;0.90;;
18013;SDS011;9132;47.946;10.394;2023-04-24T05:20:46;0.67;;;0.67;;
18013;SDS011;9132;47.946;10.394;2023-04-24T05:23:14;0.87;;;0.40;;
18013;SDS011;9132;47.946;10.394;2023-04-24T05:25:41;0.50;;;0.50;;
18013;SDS011;9132;47.946;10.394;2023-04-24T05:28:07;0.67;;;0.40;;
18013;SDS011;9132;47.946;10.394;2023-04-24T05:30:34;0.53;;;0.40;;
18013;SDS011;9132;47.946;10.394;2023-04-24T05:33:00;0.40;;;0.30;;
18013;SDS011;9132;47.946;10.394;2023-04-24T05:35:26;0.83;;;0.40;;
18013;SDS011;9132;47.946;10.394;2023-04-24T05:37:53;0.33;;;0.30;;
18013;SDS011;9132;47.946;10.394;2023-04-24T05:40:20;0.50;;;0.50;;
18013;SDS011;9132;47.946;10.394;2023-04-24T05:42:47;0.20;;;0.20;;
18013;SDS011;9132;47.946;10.394;2023-04-24T05:45:13;0.30;;;0.27;;
18013;SDS011;9132;47.946;10.394;2023-04-24T05:47:41;0.40;;;0.40;;
18013;SDS011;9132;47.946;10.394;2023-04-24T05:50:08;0.30;;;0.30;;
18013;SDS011;9132;47.946;10.394;2023-04-24T05:52:35;0.67;;;0.50;;
18013;SDS011;9132;47.946;10.394;2023-04-24T05:55:01;0.80;;;0.50;;
18013;SDS011;9132;47.946;10.394;2023-04-24T05:57:29;1.10;;;0.70;;
18013;SDS011;9132;47.946;10.394;2023-04-24T05:59:55;0.60;;;0.60;;
18013;SDS011;9132;47.946;10.394;2023-04-24T06:02:22;1.10;;;0.87;;
18013;SDS011;9132;47.946;10.394;2023-04-24T06:04:48;2.50;;;1.80;;
18013;SDS011;9132;47.946;10.394;2023-04-24T06:07:14;0.90;;;0.73;;
18013;SDS011;9132;47.946;10.394;2023-04-24T06:09:40;2.20;;;2.00;;
18013;SDS011;9132;47.946;10.394;2023-04-24T06:12:07;0.80;;;0.80;;
18013;SDS011;9132;47.946;10.394;2023-04-24T06:14:35;1.00;;;1.00;;
18013;SDS011;9132;47.946;10.394;2023-04-24T06:17:01;0.70;;;0.70;;
18013;SDS011;9132;47.946;10.394;2023-04-24T06:19:27;0.30;;;0.30;;
18013;SDS011;9132;47.946;10.394;2023-04-24T06:21:54;0.70;;;0.40;;
18013;SDS011;9132;47.946;10.394;2023-04-24T06:24:20;0.30;;;0.30;;
18013;SDS011;9132;47.946;10.394;2023-04-24T06:26:46;0.52;;;0.50;;
18013;SDS011;9132;47.946;10.394;2023-04-24T06:29:13;0.27;;;0.27;;
18013;SDS011;9132;47.946;10.394;2023-04-24T06:31:40;0.30;;;0.30;;
18013;SDS011;9132;47.946;10.394;2023-04-24T06:34:07;0.30;;;0.30;;
18013;SDS011;9132;47.946;10.394;2023-04-24T06:36:33;0.53;;;0.40;;
18013;SDS011;9132;47.946;10.394;2023-04-24T06:39:00;0.43;;;0.27;;
18013;SDS011;9132;47.946;10.394;2023-04-24T06:41:27;0.50;;;0.40;;
18013;SDS011;9132;47.946;10.394;2023-04-24T06:43:54;0.77;;;0.40;;
18013;SDS011;9132;47.946;10.394;2023-04-24T06:46:20;0.30;;;0.30;;
18013;SDS011;9132;47.946;10.394;2023-04-24T06:48:48;0.40;;;0.30;;
18013;SDS011;9132;47.946;10.394;2023-04-24T06:51:14;0.27;;;0.23;;
18013;SDS011;9132;47.946;10.394;2023-04-24T06:53:42;0.30;;;0.30;;
18013;SDS011;9132;47.946;10.394;2023-04-24T06:56:08;0.53;;;0.37;;
18013;SDS011;9132;47.946;10.394;2023-04-24T06:58:35;0.33;;;0.30;;
18013;SDS011;9132;47.946;10.394;2023-04-24T07:01:01;0.50;;;0.50;;
18013;SDS011;9132;47.946;10.394;2023-04-24T07:03:27;0.63;;;0.50;;
18013;SDS011;9132;47.946;10.394;2023-04-24T07:05:55;0.50;;;0.30;;
18013;SDS011;9132;47.946;10.394;2023-04-24T07:08:22;1.23;;;0.40;;
18013;SDS011;9132;47.946;10.394;2023-04-24T07:10:50;1.40;;;0.43;;
18013;SDS011;9132;47.946;10.394;2023-04-24T07:13:16;1.07;;;0.50;;
18013;SDS011;9132;47.946;10.394;2023-04-24T07:15:43;0.90;;;0.37;;
18013;SDS011;9132;47.946;10.394;2023-04-24T07:18:09;1.40;;;0.60;;
18013;SDS011;9132;47.946;10.394;2023-04-24T07:20:35;0.73;;;0.63;;
18013;SDS011;9132;47.946;10.394;2023-04-24T07:23:03;1.03;;;0.70;;
18013;SDS011;9132;47.946;10.394;2023-04-24T07:25:29;0.90;;;0.60;;
18013;SDS011;9132;47.946;10.394;2023-04-24T07:27:56;0.80;;;0.70;;
18013;SDS011;9132;47.946;10.394;2023-04-24T07:30:23;0.90;;;0.90;;
18013;SDS011;9132;47.946;10.394;2023-04-24T07:32:49;0.67;;;0.67;;
18013;SDS011;9132;47.946;10.394;2023-04-24T07:35:15;0.87;;;0.87;;
18013;SDS011;9132;47.946;10.394;2023-04-24T07:37:42;0.90;;;0.90;;
18013;SDS011;9132;47.946;10.394;2023-04-24T07:40:12;1.07;;;0.90;;
18013;SDS011;9132;47.946;10.394;2023-04-24T07:42:39;2.00;;;0.70;;
18013;SDS011;9132;47.946;10.394;2023-04-24T07:45:05;0.93;;;0.90;;
18013;SDS011;9132;47.946;10.394;2023-04-24T07:47:32;1.33;;;0.70;;
18013;SDS011;9132;47.946;10.394;2023-04-24T07:49:58;1.00;;;0.90;;
18013;SDS011;9132;47.946;10.394;2023-04-24T07:52:25;0.90;;;0.80;;
18013;SDS011;9132;47.946;10.394;2023-04-24T07:54:51;0.80;;;0.70;;
18013;SDS011;9132;47.946;10.394;2023-04-24T07:57:24;0.87;;;0.87;;
18013;SDS011;9132;47.946;10.394;2023-04-24T07:59:51;1.10;;;1.00;;
18013;SDS011;9132;47.946;10.394;2023-04-24T08:02:17;0.80;;;0.80;;
18013;SDS011;9132;47.946;10.394;2023-04-24T08:04:43;1.10;;;1.00;;
18013;SDS011;9132;47.946;10.394;2023-04-24T08:07:10;1.00;;;0.90;;
18013;SDS011;9132;47.946;10.394;2023-04-24T08:09:37;1.27;;;1.17;;
18013;SDS011;9132;47.946;10.394;2023-04-24T08:12:04;0.90;;;0.90;;
18013;SDS011;9132;47.946;10.394;2023-04-24T08:14:31;1.33;;;1.23;;
18013;SDS011;9132;47.946;10.394;2023-04-24T08:16:58;1.20;;;1.10;;
18013;SDS011;9132;47.946;10.394;2023-04-24T08:19:25;1.63;;;1.50;;
18013;SDS011;9132;47.946;10.394;2023-04-24T08:21:51;1.30;;;1.20;;
18013;SDS011;9132;47.946;10.394;2023-04-24T08:24:18;1.60;;;1.50;;
18013;SDS011;9132;47.946;10.394;2023-04-24T08:26:44;1.73;;;1.50;;
18013;SDS011;9132;47.946;10.394;2023-04-24T08:29:10;2.77;;;1.60;;
18013;SDS011;9132;47.946;10.394;2023-04-24T08:31:38;2.10;;;1.50;;
18013;SDS011;9132;47.946;10.394;2023-04-24T08:34:04;1.43;;;1.33;;
18013;SDS011;9132;47.946;10.394;2023-04-24T08:36:30;1.97;;;1.80;;
18013;SDS011;9132;47.946;10.394;2023-04-24T08:38:57;2.00;;;1.80;;
18013;SDS011;9132;47.946;10.394;2023-04-24T08:41:23;1.90;;;1.80;;
18013;SDS011;9132;47.946;10.394;2023-04-24T08:43:51;2.20;;;1.80;;
18013;SDS011;9132;47.946;10.394;2023-04-24T08:46:17;4.93;;;1.67;;
18013;SDS011;9132;47.946;10.394;2023-04-24T08:48:45;4.93;;;1.53;;
18013;SDS011;9132;47.946;10.394;2023-04-24T08:51:12;2.20;;;1.60;;
18013;SDS011;9132;47.946;10.394;2023-04-24T08:53:38;2.03;;;1.30;;
18013;SDS011;9132;47.946;10.394;2023-04-24T08:56:04;1.77;;;1.40;;
18013;SDS011;9132;47.946;10.394;2023-04-24T08:58:31;1.20;;;1.10;;
18013;SDS011;9132;47.946;10.394;2023-04-24T09:00:58;1.47;;;1.20;;
18013;SDS011;9132;47.946;10.394;2023-04-24T09:03:25;1.40;;;1.30;;
18013;SDS011;9132;47.946;10.394;2023-04-24T09:05:54;1.30;;;1.20;;
18013;SDS011;9132;47.946;10.394;2023-04-24T09:08:22;2.53;;;1.43;;
18013;SDS011;9132;47.946;10.394;2023-04-24T09:10:49;3.13;;;1.70;;
18013;SDS011;9132;47.946;10.394;2023-04-24T09:13:16;3.33;;;1.50;;
18013;SDS011;9132;47.946;10.394;2023-04-24T09:15:42;2.83;;;1.30;;
18013;SDS011;9132;47.946;10.394;2023-04-24T09:18:08;2.07;;;1.43;;
18013;SDS011;9132;47.946;10.394;2023-04-24T09:20:35;2.10;;;1.70;;
18013;SDS011;9132;47.946;10.394;2023-04-24T09:23:22;4.73;;;1.57;;
18013;SDS011;9132;47.946;10.394;2023-04-24T09:25:49;2.13;;;1.57;;
18013;SDS011;9132;47.946;10.394;2023-04-24T09:28:20;1.50;;;1.40;;
18013;SDS011;9132;47.946;10.394;2023-04-24T09:31:01;1.40;;;1.30;;
18013;SDS011;9132;47.946;10.394;2023-04-24T09:33:27;2.57;;;1.40;;
18013;SDS011;9132;47.946;10.394;2023-04-24T09:35:53;1.83;;;1.13;;
18013;SDS011;9132;47.946;10.394;2023-04-24T09:38:23;1.90;;;1.23;;
18013;SDS011;9132;47.946;10.394;2023-04-24T09:40:58;3.70;;;1.50;;
18013;SDS011;9132;47.946;10.394;2023-04-24T09:43:25;1.90;;;1.57;;
18013;SDS011;9132;47.946;10.394;2023-04-24T09:45:52;2.20;;;1.50;;
18013;SDS011;9132;47.946;10.394;2023-04-24T09:48:29;1.60;;;1.37;;
18013;SDS011;9132;47.946;10.394;2023-04-24T09:50:55;2.60;;;1.63;;
18013;SDS011;9132;47.946;10.394;2023-04-24T09:53:24;1.60;;;1.50;;
18013;SDS011;9132;47.946;10.394;2023-04-24T09:55:51;1.80;;;1.33;;
18013;SDS011;9132;47.946;10.394;2023-04-24T09:58:18;1.73;;;1.57;;
18013;SDS011;9132;47.946;10.394;2023-04-24T10:00:44;1.40;;;1.30;;
18013;SDS011;9132;47.946;10.394;2023-04-24T10:03:11;1.47;;;1.03;;
18013;SDS011;9132;47.946;10.394;2023-04-24T10:05:38;1.73;;;0.73;;
18013;SDS011;9132;47.946;10.394;2023-04-24T10:08:07;0.90;;;0.90;;
18013;SDS011;9132;47.946;10.394;2023-04-24T10:10:37;0.90;;;0.90;;
18013;SDS011;9132;47.946;10.394;2023-04-24T10:13:04;4.43;;;1.20;;
18013;SDS011;9132;47.946;10.394;2023-04-24T10:15:30;1.80;;;1.03;;
18013;SDS011;9132;47.946;10.394;2023-04-24T10:17:58;0.90;;;0.90;;
18013;SDS011;9132;47.946;10.394;2023-04-24T10:20:25;0.80;;;0.80;;
18013;SDS011;9132;47.946;10.394;2023-04-24T10:22:52;1.20;;;1.10;;
18013;SDS011;9132;47.946;10.394;2023-04-24T10:25:20;1.10;;;1.00;;
18013;SDS011;9132;47.946;10.394;2023-04-24T10:27:49;3.43;;;1.23;;
18013;SDS011;9132;47.946;10.394;2023-04-24T10:30:15;1.47;;;1.20;;
18013;SDS011;9132;47.946;10.394;2023-04-24T10:32:42;1.30;;;0.90;;
18013;SDS011;9132;47.946;10.394;2023-04-24T10:35:08;1.17;;;1.07;;
18013;SDS011;9132;47.946;10.394;2023-04-24T10:37:35;1.43;;;1.30;;
18013;SDS011;9132;47.946;10.394;2023-04-24T10:40:03;1.60;;;1.00;;
18013;SDS011;9132;47.946;10.394;2023-04-24T10:42:30;2.00;;;0.97;;
18013;SDS011;9132;47.946;10.394;2023-04-24T10:44:58;1.43;;;1.17;;
18013;SDS011;9132;47.946;10.394;2023-04-24T10:47:27;1.47;;;0.90;;
18013;SDS011;9132;47.946;10.394;2023-04-24T10:49:53;1.10;;;0.93;;
18013;SDS011;9132;47.946;10.394;2023-04-24T10:52:19;1.83;;;1.10;;
18013;SDS011;9132;47.946;10.394;2023-04-24T10:54:46;1.97;;;1.20;;
18013;SDS011;9132;47.946;10.394;2023-04-24T10:57:27;1.87;;;0.80;;
18013;SDS011;9132;47.946;10.394;2023-04-24T11:00:16;0.93;;;0.80;;
18013;SDS011;9132;47.946;10.394;2023-04-24T11:02:45;1.10;;;1.00;;
18013;SDS011;9132;47.946;10.394;2023-04-24T11:05:14;2.10;;;1.13;;
18013;SDS011;9132;47.946;10.394;2023-04-24T11:10:26;1.20;;;1.03;;
18013;SDS011;9132;47.946;10.394;2023-04-24T11:12:52;1.63;;;1.10;;
18013;SDS011;9132;47.946;10.394;2023-04-24T11:15:20;1.67;;;1.07;;
18013;SDS011;9132;47.946;10.394;2023-04-24T11:17:46;1.07;;;0.90;;
18013;SDS011;9132;47.946;10.394;2023-04-24T11:20:17;1.90;;;0.93;;
18013;SDS011;9132;47.946;10.394;2023-04-24T11:22:43;1.20;;;0.80;;
18013;SDS011;9132;47.946;10.394;2023-04-24T11:25:10;1.43;;;1.10;;
18013;SDS011;9132;47.946;10.394;2023-04-24T11:27:38;0.97;;;0.90;;
18013;SDS011;9132;47.946;10.394;2023-04-24T11:30:05;2.00;;;1.50;;
18013;SDS011;9132;47.946;10.394;2023-04-24T11:32:35;1.20;;;1.10;;
18013;SDS011;9132;47.946;10.394;2023-04-24T11:35:02;2.53;;;1.30;;
18013;SDS011;9132;47.946;10.394;2023-04-24T11:37:30;4.10;;;1.37;;
18013;SDS011;9132;47.946;10.394;2023-04-24T11:39:59;2.40;;;1.50;;
18013;SDS011;9132;47.946;10.394;2023-04-24T11:42:25;3.40;;;1.87;;
18013;SDS011;9132;47.946;10.394;2023-04-24T11:44:52;3.80;;;1.77;;
18013;SDS011;9132;47.946;10.394;2023-04-24T11:47:18;1.30;;;1.20;;
18013;SDS011;9132;47.946;10.394;2023-04-24T11:49:49;1.50;;;1.40;;
18013;SDS011;9132;47.946;10.394;2023-04-24T11:52:16;1.57;;;1.20;;
18013;SDS011;9132;47.946;10.394;2023-04-24T11:54:46;2.17;;;1.70;;
18013;SDS011;9132;47.946;10.394;2023-04-24T11:57:13;3.43;;;1.40;;
18013;SDS011;9132;47.946;10.394;2023-04-24T11:59:39;1.87;;;1.30;;
18013;SDS011;9132;47.946;10.394;2023-04-24T12:02:05;1.90;;;1.57;;
18013;SDS011;9132;47.946;10.394;2023-04-24T12:04:38;1.50;;;1.13;;
18013;SDS011;9132;47.946;10.394;2023-04-24T12:07:06;3.17;;;1.20;;
18013;SDS011;9132;47.946;10.394;2023-04-24T12:09:43;2.27;;;1.40;;
18013;SDS011;9132;47.946;10.394;2023-04-24T12:12:10;3.53;;;1.20;;
18013;SDS011;9132;47.946;10.394;2023-04-24T12:14:43;1.23;;;1.00;;
18013;SDS011;9132;47.946;10.394;2023-04-24T12:17:10;1.73;;;1.13;;
18013;SDS011;9132;47.946;10.394;2023-04-24T12:19:36;5.60;;;1.30;;
18013;SDS011;9132;47.946;10.394;2023-04-24T12:22:03;1.20;;;1.10;;
18013;SDS011;9132;47.946;10.394;2023-04-24T12:24:31;1.37;;;0.90;;
18013;SDS011;9132;47.946;10.394;2023-04-24T12:26:58;1.30;;;0.97;;
18013;SDS011;9132;47.946;10.394;2023-04-24T12:29:26;1.63;;;1.00;;
18013;SDS011;9132;47.946;10.394;2023-04-24T12:31:52;2.43;;;1.40;;
18013;SDS011;9132;47.946;10.394;2023-04-24T12:34:19;2.13;;;1.20;;
18013;SDS011;9132;47.946;10.394;2023-04-24T12:36:45;1.40;;;1.30;;
18013;SDS011;9132;47.946;10.394;2023-04-24T12:39:14;3.67;;;1.30;;
18013;SDS011;9132;47.946;10.394;2023-04-24T12:41:50;1.17;;;1.07;;
18013;SDS011;9132;47.946;10.394;2023-04-24T12:44:16;2.63;;;1.27;;
18013;SDS011;9132;47.946;10.394;2023-04-24T12:46:43;1.90;;;1.10;;
18013;SDS011;9132;47.946;10.394;2023-04-24T12:49:09;3.03;;;1.20;;
18013;SDS011;9132;47.946;10.394;2023-04-24T12:51:36;2.80;;;1.37;;
18013;SDS011;9132;47.946;10.394;2023-04-24T12:54:02;2.20;;;1.10;;
18013;SDS011;9132;47.946;10.394;2023-04-24T12:56:28;2.77;;;1.27;;
18013;SDS011;9132;47.946;10.394;2023-04-24T12:58:57;1.57;;;1.07;;
18013;SDS011;9132;47.946;10.394;2023-04-24T13:01:23;2.60;;;1.30;;
18013;SDS011;9132;47.946;10.394;2023-04-24T13:03:49;1.50;;;0.90;;
18013;SDS011;9132;47.946;10.394;2023-04-24T13:06:15;3.57;;;1.17;;
18013;SDS011;9132;47.946;10.394;2023-04-24T13:08:42;1.30;;;1.10;;
18013;SDS011;9132;47.946;10.394;2023-04-24T13:11:08;1.80;;;1.00;;
18013;SDS011;9132;47.946;10.394;2023-04-24T13:13:34;0.70;;;0.70;;
18013;SDS011;9132;47.946;10.394;2023-04-24T13:16:02;2.50;;;1.30;;
18013;SDS011;9132;47.946;10.394;2023-04-24T13:18:29;1.10;;;1.03;;
18013;SDS011;9132;47.946;10.394;2023-04-24T13:20:55;1.50;;;1.10;;
18013;SDS011;9132;47.946;10.394;2023-04-24T13:23:22;2.20;;;0.93;;
18013;SDS011;9132;47.946;10.394;2023-04-24T13:25:48;3.40;;;1.30;;
18013;SDS011;9132;47.946;10.394;2023-04-24T13:28:14;1.50;;;1.20;;
18013;SDS011;9132;47.946;10.394;2023-04-24T13:30:41;1.20;;;1.10;;
18013;SDS011;9132;47.946;10.394;2023-04-24T13:33:08;2.50;;;1.50;;
18013;SDS011;9132;47.946;10.394;2023-04-24T13:35:35;1.30;;;1.20;;
18013;SDS011;9132;47.946;10.394;2023-04-24T13:38:01;1.47;;;1.13;;
18013;SDS011;9132;47.946;10.394;2023-04-24T13:40:30;3.47;;;1.40;;
18013;SDS011;9132;47.946;10.394;2023-04-24T13:42:57;1.70;;;1.10;;
18013;SDS011;9132;47.946;10.394;2023-04-24T13:45:23;1.53;;;0.90;;
18013;SDS011;9132;47.946;10.394;2023-04-24T13:47:50;1.50;;;1.10;;
18013;SDS011;9132;47.946;10.394;2023-04-24T13:50:17;3.87;;;1.40;;
18013;SDS011;9132;47.946;10.394;2023-04-24T13:52:43;1.60;;;0.80;;
18013;SDS011;9132;47.946;10.394;2023-04-24T13:55:10;2.73;;;1.10;;
18013;SDS011;9132;47.946;10.394;2023-04-24T13:57:36;1.37;;;1.23;;
18013;SDS011;9132;47.946;10.394;2023-04-24T14:00:03;1.37;;;1.07;;
18013;SDS011;9132;47.946;10.394;2023-04-24T14:02:30;1.63;;;1.00;;
18013;SDS011;9132;47.946;10.394;2023-04-24T14:04:57;1.47;;;1.20;;
18013;SDS011;9132;47.946;10.394;2023-04-24T14:07:24;3.17;;;1.20;;
18013;SDS011;9132;47.946;10.394;2023-04-24T14:09:51;1.60;;;1.10;;
18013;SDS011;9132;47.946;10.394;2023-04-24T14:12:17;1.77;;;1.30;;
18013;SDS011;9132;47.946;10.394;2023-04-24T14:14:44;1.50;;;1.30;;
18013;SDS011;9132;47.946;10.394;2023-04-24T14:17:11;2.63;;;1.50;;
18013;SDS011;9132;47.946;10.394;2023-04-24T14:19:38;1.77;;;1.30;;
18013;SDS011;9132;47.946;10.394;2023-04-24T14:22:04;2.00;;;1.10;;
18013;SDS011;9132;47.946;10.394;2023-04-24T14:24:32;2.87;;;1.07;;
18013;SDS011;9132;47.946;10.394;2023-04-24T14:26:58;1.40;;;1.23;;
18013;SDS011;9132;47.946;10.394;2023-04-24T14:29:25;2.30;;;1.10;;
18013;SDS011;9132;47.946;10.394;2023-04-24T14:31:51;2.40;;;1.13;;
18013;SDS011;9132;47.946;10.394;2023-04-24T14:34:17;1.67;;;1.13;;
18013;SDS011;9132;47.946;10.394;2023-04-24T14:36:44;2.77;;;1.00;;
18013;SDS011;9132;47.946;10.394;2023-04-24T14:39:10;3.80;;;1.03;;
18013;SDS011;9132;47.946;10.394;2023-04-24T14:41:38;1.27;;;1.10;;
18013;SDS011;9132;47.946;10.394;2023-04-24T14:44:05;1.10;;;0.90;;
18013;SDS011;9132;47.946;10.394;2023-04-24T14:46:31;2.20;;;1.10;;
18013;SDS011;9132;47.946;10.394;2023-04-24T14:48:57;1.00;;;0.90;;